Fredericton, Canada
Current Conditions -  °F | °C
As of 8:11 PM on Thursday 18 Dec 2014 (Local Time) from CYFC Reporting Station
Light Snow Light Snow  
Wind Chill: 20°   Ceiling: 2400
Heat Index: 30°   Visibility: 1.7mi
Dew Point: 28°   Wind: 14mph
Humidity: 93%   Direction: 300°WNW
Pressure: 29.5"   Gusts: 21mph
Location:  45.96°N, 66.64°W
Report Text: CYFC 190011Z AUTO 30012G18KT 1 3/4SM -SN OVC024 M01/M02 A2950 RMK SLP992
Loading
Personal Weather Stations






























Interactive Weather Map New forecast layout! Learn more

10-Day Weather Forecast

Advertisements
Track Severe Weather on mobile